sensor_id;sensor_type;location;lat;lon;timestamp;P1;durP1;ratioP1;P2;durP2;ratioP2
40248;SDS011;25969;49.970;11.062;2023-03-12T05:04:44;2.17;;;1.00;;
40248;SDS011;25969;49.970;11.062;2023-03-12T05:14:45;3.77;;;1.40;;
40248;SDS011;25969;49.970;11.062;2023-03-12T05:24:45;5.97;;;1.63;;
40248;SDS011;25969;49.970;11.062;2023-03-12T05:34:46;5.00;;;1.90;;
40248;SDS011;25969;49.970;11.062;2023-03-12T05:44:48;6.03;;;2.13;;
40248;SDS011;25969;49.970;11.062;2023-03-12T05:54:52;6.70;;;2.20;;
40248;SDS011;25969;49.970;11.062;2023-03-12T06:04:53;5.20;;;1.87;;
40248;SDS011;25969;49.970;11.062;2023-03-12T06:14:54;4.60;;;2.20;;
40248;SDS011;25969;49.970;11.062;2023-03-12T06:24:56;6.00;;;1.70;;
40248;SDS011;25969;49.970;11.062;2023-03-12T06:34:59;4.20;;;1.60;;
40248;SDS011;25969;49.970;11.062;2023-03-12T06:45:00;5.30;;;2.10;;
40248;SDS011;25969;49.970;11.062;2023-03-12T06:55:01;10.43;;;2.40;;
40248;SDS011;25969;49.970;11.062;2023-03-12T07:05:01;8.10;;;3.23;;
40248;SDS011;25969;49.970;11.062;2023-03-12T07:15:02;8.03;;;2.50;;
40248;SDS011;25969;49.970;11.062;2023-03-12T07:25:03;7.07;;;3.70;;
40248;SDS011;25969;49.970;11.062;2023-03-12T07:35:04;12.77;;;3.97;;
40248;SDS011;25969;49.970;11.062;2023-03-12T07:45:06;6.70;;;4.00;;
40248;SDS011;25969;49.970;11.062;2023-03-12T07:55:07;24.30;;;13.70;;
40248;SDS011;25969;49.970;11.062;2023-03-12T08:05:09;12.75;;;6.97;;
40248;SDS011;25969;49.970;11.062;2023-03-12T08:15:10;7.93;;;4.70;;
40248;SDS011;25969;49.970;11.062;2023-03-12T08:25:15;9.80;;;4.70;;
40248;SDS011;25969;49.970;11.062;2023-03-12T08:35:17;10.07;;;4.70;;
40248;SDS011;25969;49.970;11.062;2023-03-12T08:45:18;5.03;;;2.47;;
40248;SDS011;25969;49.970;11.062;2023-03-12T08:55:19;6.73;;;1.90;;
40248;SDS011;25969;49.970;11.062;2023-03-12T09:05:19;6.77;;;2.00;;
40248;SDS011;25969;49.970;11.062;2023-03-12T09:15:20;5.93;;;1.58;;
40248;SDS011;25969;49.970;11.062;2023-03-12T09:25:21;8.60;;;1.83;;
40248;SDS011;25969;49.970;11.062;2023-03-12T09:35:22;6.37;;;2.07;;
40248;SDS011;25969;49.970;11.062;2023-03-12T09:45:27;4.37;;;1.50;;
40248;SDS011;25969;49.970;11.062;2023-03-12T09:55:35;2.87;;;1.10;;
40248;SDS011;25969;49.970;11.062;2023-03-12T10:26:39;6.23;;;2.00;;
40248;SDS011;25969;49.970;11.062;2023-03-12T10:36:43;3.73;;;1.63;;
40248;SDS011;25969;49.970;11.062;2023-03-12T10:46:54;3.20;;;1.50;;
40248;SDS011;25969;49.970;11.062;2023-03-12T10:57:06;7.17;;;1.90;;
40248;SDS011;25969;49.970;11.062;2023-03-12T11:17:24;10.27;;;2.40;;
40248;SDS011;25969;49.970;11.062;2023-03-12T11:27:30;5.43;;;2.63;;
40248;SDS011;25969;49.970;11.062;2023-03-12T11:37:48;9.73;;;3.03;;
40248;SDS011;25969;49.970;11.062;2023-03-12T11:48:08;6.80;;;2.83;;
40248;SDS011;25969;49.970;11.062;2023-03-12T12:39:28;6.73;;;3.53;;
40248;SDS011;25969;49.970;11.062;2023-03-12T12:50:49;6.93;;;4.00;;
40248;SDS011;25969;49.970;11.062;2023-03-12T13:00:56;8.00;;;4.37;;
40248;SDS011;25969;49.970;11.062;2023-03-12T13:11:02;11.73;;;4.97;;
40248;SDS011;25969;49.970;11.062;2023-03-12T13:21:23;9.73;;;3.90;;
40248;SDS011;25969;49.970;11.062;2023-03-12T13:41:30;10.60;;;4.23;;
40248;SDS011;25969;49.970;11.062;2023-03-12T13:51:37;8.30;;;3.90;;
40248;SDS011;25969;49.970;11.062;2023-03-12T14:01:47;5.67;;;3.37;;
40248;SDS011;25969;49.970;11.062;2023-03-12T14:22:15;4.10;;;2.97;;
40248;SDS011;25969;49.970;11.062;2023-03-12T14:32:22;6.37;;;3.97;;
40248;SDS011;25969;49.970;11.062;2023-03-12T14:42:31;6.23;;;4.33;;
40248;SDS011;25969;49.970;11.062;2023-03-12T14:52:33;7.83;;;4.80;;
40248;SDS011;25969;49.970;11.062;2023-03-12T15:02:36;9.53;;;5.40;;
40248;SDS011;25969;49.970;11.062;2023-03-12T15:12:37;12.43;;;7.13;;
40248;SDS011;25969;49.970;11.062;2023-03-12T15:22:37;12.17;;;6.07;;
40248;SDS011;25969;49.970;11.062;2023-03-12T15:32:40;12.37;;;6.83;;
40248;SDS011;25969;49.970;11.062;2023-03-12T15:42:41;8.47;;;6.00;;
40248;SDS011;25969;49.970;11.062;2023-03-12T16:03:03;13.40;;;6.90;;
40248;SDS011;25969;49.970;11.062;2023-03-12T16:13:08;9.37;;;6.50;;
40248;SDS011;25969;49.970;11.062;2023-03-12T16:23:14;11.67;;;6.40;;
40248;SDS011;25969;49.970;11.062;2023-03-12T16:33:16;15.63;;;6.90;;
40248;SDS011;25969;49.970;11.062;2023-03-12T16:43:20;12.97;;;5.93;;
40248;SDS011;25969;49.970;11.062;2023-03-12T16:53:23;12.53;;;5.40;;
40248;SDS011;25969;49.970;11.062;2023-03-12T17:13:35;8.60;;;4.43;;
40248;SDS011;25969;49.970;11.062;2023-03-12T17:23:36;12.17;;;4.30;;
40248;SDS011;25969;49.970;11.062;2023-03-12T17:33:37;10.27;;;4.37;;
40248;SDS011;25969;49.970;11.062;2023-03-12T17:43:37;10.77;;;4.77;;
40248;SDS011;25969;49.970;11.062;2023-03-12T17:53:38;14.40;;;6.53;;
40248;SDS011;25969;49.970;11.062;2023-03-12T18:03:41;11.60;;;5.07;;
40248;SDS011;25969;49.970;11.062;2023-03-12T18:13:45;10.93;;;4.45;;
40248;SDS011;25969;49.970;11.062;2023-03-12T18:23:47;13.55;;;4.88;;
40248;SDS011;25969;49.970;11.062;2023-03-12T18:33:48;14.43;;;4.10;;
40248;SDS011;25969;49.970;11.062;2023-03-12T18:43:48;13.57;;;4.33;;
40248;SDS011;25969;49.970;11.062;2023-03-12T18:53:52;9.52;;;4.00;;
40248;SDS011;25969;49.970;11.062;2023-03-12T19:03:53;15.77;;;3.57;;
40248;SDS011;25969;49.970;11.062;2023-03-12T19:13:54;20.13;;;4.00;;
40248;SDS011;25969;49.970;11.062;2023-03-12T19:23:55;15.03;;;4.33;;
40248;SDS011;25969;49.970;11.062;2023-03-12T19:33:56;14.57;;;3.73;;
40248;SDS011;25969;49.970;11.062;2023-03-12T19:43:56;10.83;;;2.70;;
40248;SDS011;25969;49.970;11.062;2023-03-12T19:53:57;14.20;;;3.60;;
40248;SDS011;25969;49.970;11.062;2023-03-12T20:03:58;14.70;;;3.13;;
40248;SDS011;25969;49.970;11.062;2023-03-12T20:13:59;22.10;;;3.63;;
40248;SDS011;25969;49.970;11.062;2023-03-12T20:24:00;15.37;;;3.47;;
40248;SDS011;25969;49.970;11.062;2023-03-12T20:34:01;12.63;;;3.03;;
40248;SDS011;25969;49.970;11.062;2023-03-12T20:44:02;9.27;;;2.60;;
40248;SDS011;25969;49.970;11.062;2023-03-12T20:54:03;14.67;;;2.67;;
40248;SDS011;25969;49.970;11.062;2023-03-12T21:04:04;17.67;;;3.40;;
40248;SDS011;25969;49.970;11.062;2023-03-12T21:14:04;14.80;;;2.17;;
40248;SDS011;25969;49.970;11.062;2023-03-12T21:24:05;17.17;;;2.80;;
40248;SDS011;25969;49.970;11.062;2023-03-12T21:34:06;16.73;;;2.57;;
40248;SDS011;25969;49.970;11.062;2023-03-12T21:44:07;20.53;;;2.60;;
40248;SDS011;25969;49.970;11.062;2023-03-12T21:54:08;9.23;;;1.97;;
40248;SDS011;25969;49.970;11.062;2023-03-12T22:04:09;14.63;;;2.30;;
40248;SDS011;25969;49.970;11.062;2023-03-12T22:14:09;13.63;;;2.33;;
40248;SDS011;25969;49.970;11.062;2023-03-12T22:24:10;17.00;;;3.17;;
40248;SDS011;25969;49.970;11.062;2023-03-12T22:34:11;18.97;;;2.73;;
40248;SDS011;25969;49.970;11.062;2023-03-12T22:44:12;15.07;;;2.30;;
40248;SDS011;25969;49.970;11.062;2023-03-12T22:54:13;12.67;;;1.47;;
